createdAt,value
2022-10-06T00:00:18.974Z,85.05
2022-10-06T00:01:19.029Z,85.46
2022-10-06T00:02:19.066Z,85.36
2022-10-06T00:03:19.085Z,85.25
2022-10-06T00:04:18.932Z,85.36
2022-10-06T00:05:18.926Z,85.25
2022-10-06T00:06:18.927Z,85.46
2022-10-06T00:07:19.022Z,85.36
2022-10-06T00:08:18.892Z,86.07
2022-10-06T00:09:18.900Z,85.46
2022-10-06T00:10:18.887Z,85.56
2022-10-06T00:11:18.855Z,85.86
2022-10-06T00:12:18.899Z,85.66
2022-10-06T00:13:18.845Z,85.56
2022-10-06T00:14:18.845Z,85.76
2022-10-06T00:15:18.856Z,85.46
2022-10-06T00:16:18.862Z,85.96
2022-10-06T00:17:18.812Z,86.07
2022-10-06T00:18:18.775Z,85.96
2022-10-06T00:19:18.765Z,86.61
2022-10-06T00:20:18.760Z,86.47
2022-10-06T00:21:18.823Z,86.51
2022-10-06T00:22:18.846Z,86.37
2022-10-06T00:23:18.719Z,86.41
2022-10-06T00:24:18.708Z,86.82
2022-10-06T00:25:18.692Z,86.51
2022-10-06T00:26:18.711Z,86.31
2022-10-06T00:27:18.692Z,86.21
2022-10-06T00:28:18.790Z,86.47
2022-10-06T00:29:18.663Z,86.82
2022-10-06T00:30:18.650Z,86.71
2022-10-06T00:31:18.739Z,86.91
2022-10-06T00:32:18.643Z,86.71
2022-10-06T00:33:18.630Z,86.77
2022-10-06T00:34:18.626Z,87.02
2022-10-06T00:35:18.585Z,86.71
2022-10-06T00:36:18.607Z,87.22
2022-10-06T00:37:18.618Z,86.77
2022-10-06T00:38:18.562Z,87.18
2022-10-06T00:39:18.563Z,87.32
2022-10-06T00:40:18.540Z,87.32
2022-10-06T00:41:18.663Z,86.87
2022-10-06T00:42:18.609Z,86.87
2022-10-06T00:43:18.490Z,86.98
2022-10-06T00:44:18.491Z,87.28
2022-10-06T00:45:18.471Z,87.28
2022-10-06T00:46:18.647Z,86.87
2022-10-06T00:47:18.499Z,87.18
2022-10-06T00:48:18.440Z,87.38
2022-10-06T00:49:18.443Z,87.08
2022-10-06T00:50:18.509Z,87.08
2022-10-06T00:51:18.428Z,86.87
2022-10-06T00:52:18.425Z,86.87
2022-10-06T00:53:18.382Z,86.77
2022-10-06T00:54:18.367Z,86.77
2022-10-06T00:55:18.365Z,87.08
2022-10-06T00:56:18.361Z,86.98
2022-10-06T00:57:18.365Z,86.98
2022-10-06T00:58:18.361Z,87.08
2022-10-06T00:59:18.309Z,87.08
2022-10-06T01:00:18.304Z,87.08
2022-10-06T01:01:18.370Z,87.08
2022-10-06T01:02:18.403Z,87.18
2022-10-06T01:03:18.264Z,87.13
2022-10-06T01:04:18.264Z,87.13
2022-10-06T01:05:18.337Z,87.24
2022-10-06T01:06:18.239Z,87.13
2022-10-06T01:07:18.230Z,87.24
2022-10-06T01:08:18.223Z,87.24
2022-10-06T01:09:18.199Z,86.73
2022-10-06T01:10:18.200Z,86.73
2022-10-06T01:11:18.207Z,86.63
2022-10-06T01:12:18.178Z,86.43
2022-10-06T01:13:18.164Z,86.93
2022-10-06T01:14:18.177Z,86.73
2022-10-06T01:15:18.133Z,86.53
2022-10-06T01:16:18.174Z,86.73
2022-10-06T01:17:18.116Z,86.73
2022-10-06T01:18:18.246Z,86.63
2022-10-06T01:19:18.113Z,86.73
2022-10-06T01:20:18.077Z,86.69
2022-10-06T01:21:18.064Z,86.49
2022-10-06T01:22:18.219Z,86.73
2022-10-06T01:23:18.063Z,86.63
2022-10-06T01:24:18.090Z,86.39
2022-10-06T01:25:18.015Z,86.69
2022-10-06T01:26:18.073Z,86.39
2022-10-06T01:27:17.992Z,86.49
2022-10-06T01:28:18.079Z,86.59
2022-10-06T01:29:18.008Z,86.69
2022-10-06T01:30:17.980Z,86.49
2022-10-06T01:31:18.094Z,86.69
2022-10-06T01:32:17.940Z,86.69
2022-10-06T01:33:17.940Z,86.83
2022-10-06T01:34:17.989Z,86.43
2022-10-06T01:35:17.902Z,86.69
2022-10-06T01:36:17.895Z,86.49
2022-10-06T01:37:17.880Z,86.73
2022-10-06T01:38:17.888Z,86.90
2022-10-06T01:39:17.856Z,86.63
2022-10-06T01:40:17.868Z,86.73
2022-10-06T01:41:17.832Z,86.73
2022-10-06T01:42:17.905Z,86.59
2022-10-06T01:43:17.829Z,86.13
2022-10-06T01:44:17.803Z,86.13
2022-10-06T01:45:17.791Z,86.43
2022-10-06T01:46:17.996Z,86.43
2022-10-06T01:47:17.786Z,86.39
2022-10-06T01:48:17.786Z,86.19
2022-10-06T01:49:17.747Z,86.43
2022-10-06T01:50:17.879Z,86.19
2022-10-06T01:51:17.746Z,86.08
2022-10-06T01:52:17.725Z,86.13
2022-10-06T01:53:17.725Z,86.22
2022-10-06T01:54:17.696Z,86.19
2022-10-06T01:55:17.681Z,86.29
2022-10-06T01:56:17.664Z,86.33
2022-10-06T01:57:17.677Z,86.43
2022-10-06T01:58:17.662Z,86.19
2022-10-06T01:59:17.633Z,86.33
2022-10-06T02:00:17.622Z,86.13
2022-10-06T02:01:17.679Z,86.69
2022-10-06T02:02:17.626Z,86.53
2022-10-06T02:03:17.692Z,86.63
2022-10-06T02:04:17.692Z,86.73
2022-10-06T02:05:17.568Z,86.93
2022-10-06T02:06:17.649Z,86.73
2022-10-06T02:07:17.550Z,86.63
2022-10-06T02:08:17.574Z,86.53
2022-10-06T02:09:17.549Z,86.83
2022-10-06T02:10:17.511Z,87.24
2022-10-06T02:11:17.499Z,87.13
2022-10-06T02:12:17.511Z,87.04
2022-10-06T02:13:17.515Z,86.93
2022-10-06T02:14:17.462Z,86.93
2022-10-06T02:15:17.502Z,86.73
2022-10-06T02:16:17.539Z,86.93
2022-10-06T02:17:17.462Z,86.73
2022-10-06T02:18:17.454Z,87.04
2022-10-06T02:19:17.423Z,87.04
2022-10-06T02:20:17.397Z,87.04
2022-10-06T02:21:17.425Z,86.93
2022-10-06T02:22:17.368Z,87.54
2022-10-06T02:23:17.361Z,87.13
2022-10-06T02:24:17.368Z,87.34
2022-10-06T02:25:17.346Z,87.44
2022-10-06T02:26:17.350Z,87.34
2022-10-06T02:27:17.326Z,87.54
2022-10-06T02:28:17.411Z,87.88
2022-10-06T02:29:17.308Z,87.34
2022-10-06T02:30:17.290Z,87.48
2022-10-06T02:31:17.362Z,87.48
2022-10-06T02:32:17.260Z,87.38
2022-10-06T02:33:17.285Z,88.09
2022-10-06T02:34:17.292Z,88.09
2022-10-06T02:35:17.234Z,87.95
2022-10-06T02:36:17.215Z,88.15
2022-10-06T02:37:17.210Z,87.58
2022-10-06T02:38:17.198Z,88.49
2022-10-06T02:39:17.205Z,87.58
2022-10-06T02:40:17.199Z,88.19
2022-10-06T02:41:17.161Z,87.88
2022-10-06T02:42:17.151Z,87.79
2022-10-06T02:43:17.131Z,87.79
2022-10-06T02:44:17.139Z,87.99
2022-10-06T02:45:17.113Z,87.95
2022-10-06T02:46:17.169Z,87.79
2022-10-06T02:47:17.093Z,87.44
2022-10-06T02:48:17.288Z,87.38
2022-10-06T02:49:17.082Z,88.09
2022-10-06T02:50:17.090Z,87.99
2022-10-06T02:51:17.049Z,88.04
2022-10-06T02:52:17.032Z,87.84
2022-10-06T02:53:17.043Z,87.84
2022-10-06T02:54:17.080Z,88.25
2022-10-06T02:55:17.004Z,88.70
2022-10-06T02:56:16.989Z,88.39
2022-10-06T02:57:16.981Z,88.65
2022-10-06T02:58:16.967Z,88.15
2022-10-06T02:59:16.965Z,88.15
2022-10-06T03:00:16.971Z,88.49
2022-10-06T03:01:17.006Z,88.55
2022-10-06T03:02:17.048Z,88.45
2022-10-06T03:03:16.919Z,88.39
2022-10-06T03:04:16.926Z,88.55
2022-10-06T03:05:16.891Z,88.65
2022-10-06T03:06:16.896Z,88.25
2022-10-06T03:07:16.884Z,88.45
2022-10-06T03:08:16.849Z,88.25
2022-10-06T03:09:16.875Z,88.35
2022-10-06T03:10:16.849Z,88.25
2022-10-06T03:11:16.823Z,88.45
2022-10-06T03:12:16.856Z,88.35
2022-10-06T03:13:16.792Z,88.25
2022-10-06T03:14:21.516Z,88.96
2022-10-06T03:15:17.828Z,88.45
2022-10-06T03:16:16.883Z,88.25
2022-10-06T03:17:16.754Z,88.45
2022-10-06T03:18:16.790Z,88.55
2022-10-06T03:19:16.736Z,88.35
2022-10-06T03:20:16.734Z,88.45
2022-10-06T03:21:16.706Z,88.35
2022-10-06T03:22:16.712Z,88.25
2022-10-06T03:23:16.692Z,88.15
2022-10-06T03:24:16.676Z,88.55
2022-10-06T03:25:16.683Z,88.35
2022-10-06T03:26:16.704Z,88.45
2022-10-06T03:27:16.644Z,88.45
2022-10-06T03:28:16.689Z,88.55
2022-10-06T03:29:16.620Z,88.65
2022-10-06T03:30:16.620Z,88.45
2022-10-06T03:31:16.763Z,88.35
2022-10-06T03:32:16.590Z,88.65
2022-10-06T03:33:16.566Z,88.15
2022-10-06T03:34:16.564Z,88.55
2022-10-06T03:35:16.562Z,88.15
2022-10-06T03:36:16.575Z,88.55
2022-10-06T03:37:16.524Z,88.85
2022-10-06T03:38:16.533Z,89.16
2022-10-06T03:39:16.517Z,89.26
2022-10-06T03:40:16.538Z,89.76
2022-10-06T03:41:16.478Z,89.97
2022-10-06T03:42:16.555Z,90.47
2022-10-06T03:43:16.458Z,90.37
2022-10-06T03:44:16.457Z,90.37
2022-10-06T03:45:16.453Z,90.37
2022-10-06T03:46:16.524Z,90.58
2022-10-06T03:47:17.565Z,90.67
2022-10-06T03:48:16.531Z,90.67
2022-10-06T03:49:16.391Z,91.18
2022-10-06T03:50:16.403Z,90.98
2022-10-06T03:51:16.369Z,91.58
2022-10-06T03:52:16.358Z,91.89
2022-10-06T03:53:16.368Z,91.49
2022-10-06T03:54:16.494Z,91.58
2022-10-06T03:55:16.336Z,91.49
2022-10-06T03:56:16.317Z,91.69
2022-10-06T03:57:16.296Z,91.78
2022-10-06T03:58:16.320Z,91.99
2022-10-06T03:59:16.284Z,91.69
2022-10-06T04:00:16.293Z,91.49
2022-10-06T04:01:16.432Z,90.98
2022-10-06T04:02:16.347Z,91.14
2022-10-06T04:03:16.238Z,90.63
2022-10-06T04:04:16.275Z,90.98
2022-10-06T04:05:16.274Z,90.63
2022-10-06T04:06:16.208Z,90.12
2022-10-06T04:07:16.195Z,90.07
2022-10-06T04:08:16.211Z,90.17
2022-10-06T04:09:16.259Z,89.83
2022-10-06T04:10:16.198Z,90.12
2022-10-06T04:11:16.146Z,90.23
2022-10-06T04:12:16.139Z,90.03
2022-10-06T04:13:16.118Z,90.12
2022-10-06T04:14:16.106Z,90.33
2022-10-06T04:15:16.175Z,90.23
2022-10-06T04:16:16.150Z,89.97
2022-10-06T04:17:16.086Z,90.23
2022-10-06T04:18:16.102Z,90.27
2022-10-06T04:19:16.050Z,90.03
2022-10-06T04:20:16.061Z,90.03
2022-10-06T04:21:16.030Z,90.12
2022-10-06T04:22:16.034Z,90.33
2022-10-06T04:23:16.049Z,90.23
2022-10-06T04:24:15.993Z,89.97
2022-10-06T04:25:16.006Z,89.72
2022-10-06T04:26:16.002Z,88.61
2022-10-06T04:27:15.958Z,88.21
2022-10-06T04:28:16.094Z,88.51
2022-10-06T04:29:15.940Z,88.45
2022-10-06T04:30:15.939Z,88.45
2022-10-06T04:31:15.985Z,88.10
2022-10-06T04:32:15.903Z,87.90
2022-10-06T04:33:15.908Z,88.01
2022-10-06T04:34:15.925Z,86.39
2022-10-06T04:35:15.884Z,84.81
2022-10-06T04:36:15.860Z,84.67
2022-10-06T04:37:15.852Z,83.76
2022-10-06T04:38:15.840Z,81.98
2022-10-06T04:39:15.854Z,80.16
2022-10-06T04:40:15.840Z,79.92
2022-10-06T04:41:15.809Z,80.43
2022-10-06T04:42:15.810Z,80.32
2022-10-06T04:43:15.795Z,80.26
2022-10-06T04:44:15.773Z,79.92
2022-10-06T04:45:15.781Z,80.32
2022-10-06T04:46:40.999Z,80.12
2022-10-06T04:47:16.752Z,80.22
2022-10-06T04:48:15.729Z,79.32
2022-10-06T04:49:19.992Z,78.91
2022-10-06T04:50:15.718Z,79.01
2022-10-06T04:51:15.730Z,78.34
2022-10-06T04:52:15.676Z,78.50
2022-10-06T04:53:15.697Z,78.71
2022-10-06T04:54:15.682Z,78.30
2022-10-06T04:55:15.644Z,78.20
2022-10-06T04:56:15.669Z,77.90
2022-10-06T04:57:15.766Z,78.00
2022-10-06T04:58:15.661Z,78.20
2022-10-06T04:59:15.605Z,78.41
2022-10-06T05:00:15.588Z,77.90
2022-10-06T05:01:15.664Z,77.70
2022-10-06T05:02:15.599Z,77.60
2022-10-06T05:03:15.570Z,77.80
2022-10-06T05:04:15.546Z,77.50
2022-10-06T05:05:15.547Z,77.50
2022-10-06T05:06:15.551Z,77.64
2022-10-06T05:07:15.529Z,77.90
2022-10-06T05:08:15.570Z,77.33
2022-10-06T05:09:15.496Z,77.29
2022-10-06T05:10:15.491Z,76.93
2022-10-06T05:11:18.156Z,76.69
2022-10-06T05:12:15.454Z,76.79
2022-10-06T05:13:15.455Z,76.79
2022-10-06T05:14:15.445Z,76.59
2022-10-06T05:15:15.416Z,76.32
2022-10-06T05:16:15.509Z,76.42
2022-10-06T05:17:15.397Z,76.32
2022-10-06T05:18:15.410Z,76.12
2022-10-06T05:19:15.380Z,76.12
2022-10-06T05:20:15.363Z,76.62
2022-10-06T05:21:15.353Z,76.42
2022-10-06T05:22:15.372Z,76.32
2022-10-06T05:23:15.350Z,76.52
2022-10-06T05:24:15.363Z,76.12
2022-10-06T05:25:15.306Z,76.52
2022-10-06T05:26:15.304Z,75.51
2022-10-06T05:27:15.276Z,75.81
2022-10-06T05:28:15.367Z,76.32
2022-10-06T05:29:15.261Z,76.22
2022-10-06T05:30:15.278Z,76.12
2022-10-06T05:31:15.296Z,76.12
2022-10-06T05:32:15.223Z,76.32
2022-10-06T05:33:15.224Z,76.22
2022-10-06T05:34:15.204Z,76.32
2022-10-06T05:35:15.194Z,75.21
2022-10-06T05:36:15.175Z,74.90
2022-10-06T05:37:15.168Z,75.21
2022-10-06T05:38:15.175Z,75.41
2022-10-06T05:39:15.162Z,74.30
2022-10-06T05:40:15.135Z,74.80
2022-10-06T05:41:15.124Z,74.63
2022-10-06T05:42:15.153Z,74.94
2022-10-06T05:43:15.131Z,75.41
2022-10-06T05:44:15.090Z,75.04
2022-10-06T05:45:15.083Z,74.94
2022-10-06T05:46:15.194Z,75.45
2022-10-06T05:47:15.058Z,75.55
2022-10-06T05:48:15.075Z,75.34
2022-10-06T05:49:15.033Z,75.04
2022-10-06T05:50:15.029Z,75.14
2022-10-06T05:51:15.027Z,75.65
2022-10-06T05:52:14.999Z,75.65
2022-10-06T05:53:15.009Z,75.65
2022-10-06T05:54:14.985Z,76.59
2022-10-06T05:55:14.990Z,76.46
2022-10-06T05:56:14.988Z,76.35
2022-10-06T05:57:14.945Z,76.35
2022-10-06T05:58:28.041Z,76.26
2022-10-06T05:59:15.921Z,76.35
2022-10-06T06:00:14.905Z,76.29
2022-10-06T06:01:14.984Z,75.55
2022-10-06T06:02:15.103Z,76.70
2022-10-06T06:03:14.892Z,76.50
2022-10-06T06:04:14.879Z,76.70
2022-10-06T06:05:14.851Z,75.99
2022-10-06T06:06:14.840Z,75.58
2022-10-06T06:07:14.834Z,75.99
2022-10-06T06:08:14.839Z,76.79
2022-10-06T06:09:14.812Z,75.79
2022-10-06T06:10:14.799Z,76.09
2022-10-06T06:11:14.801Z,76.29
2022-10-06T06:12:14.776Z,76.63
2022-10-06T06:13:14.778Z,76.23
2022-10-06T06:14:14.754Z,76.43
2022-10-06T06:15:14.749Z,76.23
2022-10-06T06:16:14.837Z,76.23
2022-10-06T06:17:14.722Z,76.32
2022-10-06T06:18:14.794Z,76.63
2022-10-06T06:19:14.714Z,77.03
2022-10-06T06:20:14.684Z,77.03
2022-10-06T06:21:14.671Z,77.03
2022-10-06T06:22:14.693Z,76.73
2022-10-06T06:23:14.656Z,76.93
2022-10-06T06:24:14.649Z,76.83
2022-10-06T06:25:14.631Z,76.83
2022-10-06T06:26:14.623Z,76.93
2022-10-06T06:27:14.607Z,76.83
2022-10-06T06:28:14.703Z,76.73
2022-10-06T06:29:14.583Z,76.93
2022-10-06T06:30:14.567Z,77.44
2022-10-06T06:31:19.732Z,77.03
2022-10-06T06:32:15.560Z,77.03
2022-10-06T06:33:14.555Z,76.63
2022-10-06T06:34:14.551Z,76.73
2022-10-06T06:35:14.524Z,76.83
2022-10-06T06:36:14.512Z,77.03
2022-10-06T06:37:15.506Z,77.03
2022-10-06T06:38:14.488Z,76.93
2022-10-06T06:39:14.492Z,76.83
2022-10-06T06:40:14.467Z,77.14
2022-10-06T06:41:14.449Z,77.44
2022-10-06T06:42:14.439Z,77.58
2022-10-06T06:43:14.446Z,77.37
2022-10-06T06:44:14.434Z,77.37
2022-10-06T06:45:14.411Z,77.28
2022-10-06T06:46:14.509Z,77.37
2022-10-06T06:47:14.383Z,77.48
2022-10-06T06:48:14.388Z,76.97
2022-10-06T06:49:14.359Z,77.48
2022-10-06T06:50:14.375Z,77.48
2022-10-06T06:51:14.337Z,77.28
2022-10-06T06:52:14.331Z,77.37
2022-10-06T06:53:16.216Z,77.48
2022-10-06T06:54:14.334Z,77.98
2022-10-06T06:55:14.297Z,77.98
2022-10-06T06:56:14.284Z,77.88
2022-10-06T06:57:14.294Z,78.19
2022-10-06T06:58:14.263Z,78.39
2022-10-06T06:59:14.269Z,77.78
2022-10-06T07:00:14.255Z,77.88
2022-10-06T07:01:14.357Z,78.39
2022-10-06T07:02:14.301Z,78.28
2022-10-06T07:03:14.215Z,78.49
2022-10-06T07:04:14.208Z,78.59
2022-10-06T07:05:14.183Z,78.79
2022-10-06T07:06:14.190Z,78.49
2022-10-06T07:07:14.165Z,78.79
2022-10-06T07:08:14.144Z,79.00
2022-10-06T07:09:14.153Z,79.10
2022-10-06T07:10:14.121Z,79.30
2022-10-06T07:11:14.124Z,79.40
2022-10-06T07:12:14.097Z,79.10
2022-10-06T07:13:14.095Z,79.20
2022-10-06T07:14:14.103Z,79.40
2022-10-06T07:15:14.063Z,79.40
2022-10-06T07:16:14.141Z,79.20
2022-10-06T07:17:14.050Z,79.30
2022-10-06T07:18:14.039Z,79.00
2022-10-06T07:19:14.042Z,79.30
2022-10-06T07:20:14.028Z,79.30
2022-10-06T07:21:14.006Z,79.20
2022-10-06T07:22:14.029Z,79.00
2022-10-06T07:23:13.981Z,79.40
2022-10-06T07:24:13.994Z,79.20
2022-10-06T07:25:13.953Z,79.40
2022-10-06T07:26:13.944Z,79.40
2022-10-06T07:27:13.929Z,79.60
2022-10-06T07:28:13.954Z,79.60
2022-10-06T07:29:13.947Z,79.60
2022-10-06T07:30:13.904Z,78.89
2022-10-06T07:31:13.950Z,79.00
2022-10-06T07:32:13.890Z,79.20
2022-10-06T07:33:13.864Z,79.46
2022-10-06T07:34:13.859Z,79.10
2022-10-06T07:35:13.873Z,78.79
2022-10-06T07:36:13.833Z,78.86
2022-10-06T07:37:13.835Z,78.79
2022-10-06T07:38:13.836Z,78.89
2022-10-06T07:39:13.798Z,79.50
2022-10-06T07:40:13.814Z,79.20
2022-10-06T07:41:19.372Z,79.10
2022-10-06T07:42:14.759Z,79.16
2022-10-06T07:43:13.748Z,79.16
2022-10-06T07:44:13.743Z,79.26
2022-10-06T07:45:13.748Z,79.16
2022-10-06T07:46:13.777Z,79.26
2022-10-06T07:47:13.708Z,78.66
2022-10-06T07:48:13.707Z,78.75
2022-10-06T07:49:13.685Z,78.75
2022-10-06T07:50:13.686Z,78.35
2022-10-06T07:51:13.670Z,77.61
2022-10-06T07:52:13.661Z,78.01
2022-10-06T07:53:13.643Z,78.01
2022-10-06T07:54:13.650Z,77.91
2022-10-06T07:55:13.635Z,78.21
2022-10-06T07:56:13.618Z,77.61
2022-10-06T07:57:13.597Z,77.91
2022-10-06T07:58:13.585Z,78.01
2022-10-06T07:59:13.576Z,77.50
2022-10-06T08:00:13.589Z,77.50
2022-10-06T08:01:13.557Z,77.50
2022-10-06T08:02:13.589Z,77.30
2022-10-06T08:03:13.608Z,77.81
2022-10-06T08:04:13.521Z,77.40
2022-10-06T08:05:13.530Z,77.37
2022-10-06T08:06:13.503Z,76.79
2022-10-06T08:07:13.485Z,76.59
2022-10-06T08:08:13.486Z,76.56
2022-10-06T08:09:13.470Z,76.26
2022-10-06T08:10:13.462Z,76.35
2022-10-06T08:11:13.451Z,76.05
2022-10-06T08:12:13.422Z,76.05
2022-10-06T08:13:13.419Z,75.95
2022-10-06T08:14:13.412Z,75.55
2022-10-06T08:15:13.395Z,75.14
2022-10-06T08:16:13.515Z,75.04
2022-10-06T08:17:13.373Z,74.94
2022-10-06T08:18:33.711Z,74.43
2022-10-06T08:19:14.347Z,74.23
2022-10-06T08:20:13.337Z,73.83
2022-10-06T08:21:13.342Z,74.13
2022-10-06T08:22:13.316Z,74.74
2022-10-06T08:23:13.304Z,74.03
2022-10-06T08:24:13.298Z,74.13
2022-10-06T08:25:13.673Z,73.43
2022-10-06T08:26:13.419Z,73.72
2022-10-06T08:27:13.287Z,73.43
2022-10-06T08:28:13.288Z,73.12
2022-10-06T08:29:13.230Z,72.78
2022-10-06T08:30:13.224Z,72.99
2022-10-06T08:31:13.328Z,72.99
2022-10-06T08:32:13.198Z,72.58
2022-10-06T08:33:13.199Z,72.08
2022-10-06T08:34:13.186Z,72.78
2022-10-06T08:35:13.183Z,71.97
2022-10-06T08:36:13.179Z,71.87
2022-10-06T08:37:20.125Z,71.97
2022-10-06T08:38:14.130Z,72.24
2022-10-06T08:39:13.132Z,72.44
2022-10-06T08:40:13.106Z,71.64
2022-10-06T08:41:13.120Z,71.37
2022-10-06T08:42:13.116Z,71.13
2022-10-06T08:43:13.079Z,71.23
2022-10-06T08:44:13.063Z,70.42
2022-10-06T08:45:13.055Z,70.22
2022-10-06T08:46:13.042Z,69.31
2022-10-06T08:47:13.051Z,69.62
2022-10-06T08:48:13.014Z,69.71
2022-10-06T08:49:13.006Z,70.02
2022-10-06T08:50:12.998Z,70.02
2022-10-06T08:51:12.985Z,70.12
2022-10-06T08:52:12.992Z,69.58
2022-10-06T08:53:15.563Z,69.08
2022-10-06T08:54:12.959Z,68.77
2022-10-06T08:55:12.956Z,69.08
2022-10-06T08:56:12.952Z,68.87
2022-10-06T08:57:12.937Z,69.28
2022-10-06T08:58:13.008Z,68.77
2022-10-06T08:59:12.905Z,68.44
2022-10-06T09:00:13.173Z,68.33
2022-10-06T09:01:12.953Z,68.61
2022-10-06T09:02:12.974Z,66.79
2022-10-06T09:03:12.882Z,66.59
2022-10-06T09:04:12.846Z,66.05
2022-10-06T09:05:12.843Z,64.75
2022-10-06T09:06:12.831Z,64.84
2022-10-06T09:07:12.825Z,65.05
2022-10-06T09:08:12.796Z,64.84
2022-10-06T09:09:12.799Z,64.44
2022-10-06T09:10:12.781Z,65.01
2022-10-06T09:11:12.770Z,65.52
2022-10-06T09:12:12.779Z,64.41
2022-10-06T09:13:12.741Z,65.52
2022-10-06T09:14:12.770Z,64.48
2022-10-06T09:15:12.748Z,63.27
2022-10-06T09:16:12.750Z,64.28
2022-10-06T09:17:12.863Z,64.18
2022-10-06T09:18:12.700Z,64.41
2022-10-06T09:19:12.683Z,64.31
2022-10-06T09:20:12.669Z,64.61
2022-10-06T09:21:12.661Z,64.69
2022-10-06T09:22:12.675Z,64.95
2022-10-06T09:23:12.647Z,63.85
2022-10-06T09:24:12.636Z,62.51
2022-10-06T09:25:12.620Z,62.51
2022-10-06T09:26:12.601Z,62.61
2022-10-06T09:27:12.618Z,61.27
2022-10-06T09:28:12.631Z,61.37
2022-10-06T09:29:12.588Z,61.57
2022-10-06T09:30:12.645Z,60.67
2022-10-06T09:31:12.611Z,60.87
2022-10-06T09:32:12.535Z,61.27
2022-10-06T09:33:12.539Z,60.67
2022-10-06T09:34:12.521Z,60.47
2022-10-06T09:35:12.500Z,60.94
2022-10-06T09:36:12.493Z,60.44
2022-10-06T09:37:12.471Z,59.83
2022-10-06T09:38:12.485Z,60.41
2022-10-06T09:39:12.451Z,59.20
2022-10-06T09:40:12.440Z,60.00
2022-10-06T09:41:12.428Z,59.70
2022-10-06T09:42:12.425Z,60.51
2022-10-06T09:43:12.449Z,60.08
2022-10-06T09:44:12.395Z,61.18
2022-10-06T09:45:12.378Z,60.78
2022-10-06T09:46:12.420Z,59.78
2022-10-06T09:47:12.363Z,59.45
2022-10-06T09:48:12.378Z,61.15
2022-10-06T09:49:12.351Z,60.15
2022-10-06T09:50:12.426Z,58.75
2022-10-06T09:51:12.365Z,59.22
2022-10-06T09:52:12.302Z,58.81
2022-10-06T09:53:12.331Z,58.72
2022-10-06T09:54:12.281Z,57.01
2022-10-06T09:55:12.288Z,57.59
2022-10-06T09:56:12.265Z,56.88
2022-10-06T09:57:12.255Z,57.79
2022-10-06T09:58:12.260Z,57.68
2022-10-06T09:59:12.234Z,56.85
2022-10-06T10:00:12.216Z,56.76
2022-10-06T10:01:12.290Z,55.55
2022-10-06T10:02:12.238Z,55.55
2022-10-06T10:03:12.256Z,55.65
2022-10-06T10:04:21.006Z,54.52
2022-10-06T10:05:13.160Z,55.02
2022-10-06T10:06:12.149Z,55.43
2022-10-06T10:07:12.136Z,52.62
2022-10-06T10:08:12.144Z,52.62
2022-10-06T10:09:12.118Z,53.12
2022-10-06T10:10:12.099Z,53.32
2022-10-06T10:11:12.099Z,53.00
2022-10-06T10:12:12.079Z,52.49
2022-10-06T10:13:12.084Z,53.19
2022-10-06T10:14:12.057Z,53.89
2022-10-06T10:15:12.045Z,53.47
2022-10-06T10:16:12.067Z,52.47
2022-10-06T10:17:12.027Z,52.74
2022-10-06T10:18:12.058Z,52.64
2022-10-06T10:19:12.003Z,53.62
2022-10-06T10:20:11.998Z,51.92
2022-10-06T10:21:11.977Z,52.29
2022-10-06T10:22:11.963Z,51.39
2022-10-06T10:23:11.972Z,50.97
2022-10-06T10:24:11.981Z,49.37
2022-10-06T10:25:11.961Z,50.54
2022-10-06T10:26:11.925Z,50.22
2022-10-06T10:27:11.929Z,49.30
2022-10-06T10:28:11.987Z,50.47
2022-10-06T10:29:11.897Z,49.35
2022-10-06T10:30:11.886Z,47.61
2022-10-06T10:31:11.935Z,48.28
2022-10-06T10:32:11.857Z,47.74
2022-10-06T10:33:11.950Z,46.03
2022-10-06T10:34:22.917Z,46.20
2022-10-06T10:35:12.822Z,45.76
2022-10-06T10:36:11.816Z,45.64
2022-10-06T10:37:11.804Z,44.71
2022-10-06T10:38:14.701Z,41.83
2022-10-06T10:39:11.776Z,41.24
2022-10-06T10:40:11.765Z,41.24
2022-10-06T10:41:11.763Z,41.91
2022-10-06T10:42:11.763Z,40.42
2022-10-06T10:43:11.742Z,40.82
2022-10-06T10:44:11.773Z,40.82
2022-10-06T10:45:11.720Z,42.09
2022-10-06T10:46:11.739Z,41.00
2022-10-06T10:47:11.696Z,40.31
2022-10-06T10:48:11.682Z,39.89
2022-10-06T10:49:11.703Z,39.91
2022-10-06T10:50:11.676Z,40.52
2022-10-06T10:51:11.649Z,41.04
2022-10-06T10:52:11.641Z,41.93
2022-10-06T10:53:11.653Z,41.14
2022-10-06T10:54:11.634Z,41.97
2022-10-06T10:55:11.603Z,42.17
2022-10-06T10:56:11.593Z,42.57
2022-10-06T10:57:11.579Z,42.69
2022-10-06T10:58:11.567Z,42.29
2022-10-06T10:59:11.572Z,42.91
2022-10-06T11:00:11.551Z,41.74
2022-10-06T11:01:11.615Z,42.65
2022-10-06T11:02:11.691Z,43.84
2022-10-06T11:03:11.525Z,44.24
2022-10-06T11:04:11.525Z,43.84
2022-10-06T11:05:11.491Z,44.93
2022-10-06T11:06:11.499Z,45.53
2022-10-06T11:07:11.471Z,44.04
2022-10-06T11:08:11.459Z,44.26
2022-10-06T11:09:11.478Z,43.76
2022-10-06T11:10:11.443Z,44.46
2022-10-06T11:11:11.437Z,44.18
2022-10-06T11:12:11.416Z,46.17
2022-10-06T11:13:11.407Z,44.31
2022-10-06T11:14:11.406Z,45.90
2022-10-06T11:15:11.380Z,45.52
2022-10-06T11:16:11.460Z,45.32
2022-10-06T11:17:11.359Z,45.04
2022-10-06T11:18:11.350Z,45.64
2022-10-06T11:19:11.352Z,47.06
2022-10-06T11:20:11.331Z,46.86
2022-10-06T11:21:11.346Z,46.16
2022-10-06T11:22:11.323Z,46.46
2022-10-06T11:23:11.342Z,45.68
2022-10-06T11:24:11.331Z,46.48
2022-10-06T11:25:11.362Z,46.88
2022-10-06T11:26:11.277Z,48.10
2022-10-06T11:27:11.290Z,47.40
2022-10-06T11:28:11.301Z,46.73
2022-10-06T11:29:11.245Z,48.45
2022-10-06T11:30:11.221Z,48.55
2022-10-06T11:31:11.248Z,48.57
2022-10-06T11:32:11.202Z,48.27
2022-10-06T11:33:11.205Z,48.77
2022-10-06T11:34:11.191Z,48.90
2022-10-06T11:35:11.159Z,48.69
2022-10-06T11:36:11.155Z,48.72
2022-10-06T11:37:11.137Z,49.72
2022-10-06T11:38:11.148Z,50.02
2022-10-06T11:39:11.133Z,50.32
2022-10-06T11:40:11.241Z,51.25
2022-10-06T11:41:11.090Z,50.34
2022-10-06T11:42:11.077Z,50.74
2022-10-06T11:43:11.080Z,50.62
2022-10-06T11:44:11.058Z,51.54
2022-10-06T11:45:11.070Z,51.42
2022-10-06T11:46:11.154Z,52.42
2022-10-06T11:47:11.026Z,51.62
2022-10-06T11:48:11.018Z,51.92
2022-10-06T11:49:11.003Z,51.72
2022-10-06T11:50:11.037Z,52.42
2022-10-06T11:51:10.983Z,51.02
2022-10-06T11:52:10.974Z,49.94
2022-10-06T11:53:10.963Z,49.74
2022-10-06T11:54:10.972Z,49.64
2022-10-06T11:55:10.952Z,49.54
2022-10-06T11:56:10.939Z,50.04
2022-10-06T11:57:10.915Z,50.34
2022-10-06T11:58:44.747Z,49.64
2022-10-06T11:59:11.891Z,51.34
2022-10-06T12:00:10.993Z,50.14
2022-10-06T12:01:10.875Z,50.34
2022-10-06T12:02:10.988Z,51.44
2022-10-06T12:03:10.995Z,51.04
2022-10-06T12:04:10.841Z,51.14
2022-10-06T12:05:36.322Z,52.14
2022-10-06T12:06:11.817Z,51.64
2022-10-06T12:07:10.802Z,50.84
2022-10-06T12:08:10.794Z,50.34
2022-10-06T12:09:10.783Z,50.84
2022-10-06T12:10:10.894Z,49.44
2022-10-06T12:11:10.788Z,49.57
2022-10-06T12:12:10.758Z,49.57
2022-10-06T12:13:21.200Z,49.37
2022-10-06T12:15:31.814Z,49.89
2022-10-06T12:17:18.293Z,49.51
2022-10-06T12:18:11.681Z,49.51
2022-10-06T12:19:10.685Z,50.11
2022-10-06T12:20:10.677Z,49.81
2022-10-06T12:21:10.649Z,51.21
2022-10-06T12:22:10.642Z,51.92
2022-10-06T12:23:10.634Z,52.55
2022-10-06T12:24:10.689Z,51.82
2022-10-06T12:25:10.626Z,52.12
2022-10-06T12:26:10.616Z,52.04
2022-10-06T12:27:10.594Z,51.84
2022-10-06T12:28:10.606Z,52.64
2022-10-06T12:29:10.563Z,52.24
2022-10-06T12:30:10.554Z,51.94
2022-10-06T12:31:14.536Z,52.44
2022-10-06T12:32:11.526Z,52.75
2022-10-06T12:33:10.520Z,52.44
2022-10-06T12:34:10.508Z,52.84
2022-10-06T12:35:10.512Z,52.14
2022-10-06T12:36:10.490Z,53.34
2022-10-06T12:37:10.480Z,52.64
2022-10-06T12:38:10.460Z,53.64
2022-10-06T12:39:10.468Z,52.55
2022-10-06T12:40:10.446Z,53.14
2022-10-06T12:41:10.439Z,52.64
2022-10-06T12:42:10.505Z,53.25
2022-10-06T12:43:10.402Z,51.74
2022-10-06T12:44:10.416Z,51.34
2022-10-06T12:45:10.382Z,51.72
2022-10-06T12:46:10.468Z,52.64
2022-10-06T12:47:10.361Z,52.94
2022-10-06T12:48:10.355Z,51.84
2022-10-06T12:49:10.338Z,50.84
2022-10-06T12:50:10.339Z,50.34
2022-10-06T12:51:10.335Z,49.93
2022-10-06T12:52:10.312Z,50.63
2022-10-06T12:53:10.293Z,49.63
2022-10-06T12:54:10.285Z,50.04